createdAt,value
2019-05-19T00:01:45.129Z,13.70
2019-05-19T00:04:15.609Z,13.70
2019-05-19T00:06:46.116Z,13.70
2019-05-19T00:09:16.902Z,13.60
2019-05-19T00:11:47.500Z,13.70
2019-05-19T00:14:17.962Z,13.70
2019-05-19T00:16:48.490Z,13.70
2019-05-19T00:19:26.569Z,13.60
2019-05-19T00:21:50.230Z,13.50
2019-05-19T00:24:20.777Z,13.50
2019-05-19T00:26:51.045Z,13.50
2019-05-19T00:29:21.653Z,13.50
2019-05-19T00:31:51.921Z,13.50
2019-05-19T00:34:22.488Z,13.40
2019-05-19T00:36:52.981Z,13.30
2019-05-19T00:39:23.588Z,13.30
2019-05-19T00:41:53.971Z,13.30
2019-05-19T00:44:24.426Z,13.40
2019-05-19T00:46:54.914Z,13.40
2019-05-19T00:49:25.463Z,13.40
2019-05-19T00:51:55.949Z,13.40
2019-05-19T00:54:26.365Z,13.50
2019-05-19T00:56:57.113Z,13.50
2019-05-19T00:59:28.105Z,13.60
2019-05-19T01:01:58.606Z,13.60
2019-05-19T01:04:29.410Z,13.70
2019-05-19T01:06:59.912Z,13.80
2019-05-19T01:09:30.494Z,13.80
2019-05-19T01:12:01.003Z,13.70
2019-05-19T01:17:01.183Z,13.60
2019-05-19T01:19:31.462Z,13.50
2019-05-19T01:22:02.041Z,13.40
2019-05-19T01:24:32.489Z,13.30
2019-05-19T01:27:02.971Z,13.10
2019-05-19T01:29:33.467Z,13.10
2019-05-19T01:32:04.159Z,13.10
2019-05-19T01:34:34.494Z,13.00
2019-05-19T01:37:05.007Z,12.90
2019-05-19T01:39:35.464Z,12.80
2019-05-19T01:42:06.242Z,12.80
2019-05-19T01:44:36.749Z,12.60
2019-05-19T01:47:07.205Z,12.70
2019-05-19T01:49:37.606Z,12.60
2019-05-19T01:52:08.384Z,12.50
2019-05-19T01:54:38.876Z,12.40
2019-05-19T01:57:09.426Z,12.30
2019-05-19T01:59:39.769Z,12.30
2019-05-19T02:02:10.173Z,12.20
2019-05-19T02:04:40.588Z,12.10
2019-05-19T02:07:11.065Z,12.10
2019-05-19T02:09:41.456Z,12.20
2019-05-19T02:12:12.018Z,12.10
2019-05-19T02:14:42.431Z,12.00
2019-05-19T02:17:12.871Z,11.80
2019-05-19T02:19:43.376Z,11.70
2019-05-19T02:22:13.919Z,11.60
2019-05-19T02:24:44.342Z,11.60
2019-05-19T02:27:15.064Z,11.60
2019-05-19T02:29:45.590Z,11.60
2019-05-19T02:32:16.085Z,11.60
2019-05-19T02:34:46.652Z,11.50
2019-05-19T02:37:17.089Z,11.30
2019-05-19T02:39:47.605Z,11.30
2019-05-19T02:42:18.453Z,11.30
2019-05-19T02:44:49.104Z,11.20
2019-05-19T02:47:19.866Z,11.20
2019-05-19T02:49:50.517Z,11.20
2019-05-19T02:52:20.955Z,11.10
2019-05-19T02:57:21.301Z,11.20
2019-05-19T02:59:51.938Z,11.20
2019-05-19T03:02:22.430Z,11.10
2019-05-19T03:04:52.889Z,11.10
2019-05-19T03:07:23.233Z,11.10
2019-05-19T03:09:53.485Z,11.10
2019-05-19T03:12:24.104Z,11.20
2019-05-19T03:14:54.596Z,11.20
2019-05-19T03:19:54.941Z,11.30
2019-05-19T03:22:25.506Z,11.30
2019-05-19T03:24:55.895Z,11.30
2019-05-19T03:27:26.633Z,11.20
2019-05-19T03:29:57.432Z,11.00
2019-05-19T03:32:51.926Z,11.00
2019-05-19T03:35:22.393Z,10.90
2019-05-19T03:37:52.695Z,11.00
2019-05-19T03:40:23.407Z,11.20
2019-05-19T03:42:53.961Z,11.30
2019-05-19T03:45:24.370Z,11.30
2019-05-19T03:47:54.880Z,11.20
2019-05-19T03:50:25.263Z,11.20
2019-05-19T03:52:55.663Z,11.40
2019-05-19T03:55:25.979Z,11.50
2019-05-19T03:57:56.292Z,11.50
2019-05-19T04:00:26.730Z,11.50
2019-05-19T04:02:57.559Z,11.50
2019-05-19T04:05:27.890Z,11.40
2019-05-19T04:07:58.531Z,11.40
2019-05-19T04:12:58.607Z,11.50
2019-05-19T04:15:29.176Z,11.60
2019-05-19T04:17:59.665Z,11.70
2019-05-19T04:20:30.199Z,11.80
2019-05-19T04:23:00.600Z,12.00
2019-05-19T04:25:31.087Z,12.10
2019-05-19T04:28:01.431Z,12.10
2019-05-19T04:33:01.913Z,12.50
2019-05-19T04:38:00.793Z,12.60
2019-05-19T04:40:31.350Z,12.90
2019-05-19T04:43:01.852Z,13.00
2019-05-19T04:45:32.187Z,13.10
2019-05-19T04:48:02.699Z,13.20
2019-05-19T04:50:33.228Z,13.30
2019-05-19T04:53:03.687Z,13.50
2019-05-19T04:55:34.189Z,13.60
2019-05-19T04:58:05.038Z,13.80
2019-05-19T05:00:35.456Z,13.90
2019-05-19T05:03:05.672Z,14.00
2019-05-19T05:05:36.002Z,14.20
2019-05-19T05:08:06.492Z,14.20
2019-05-19T05:10:37.053Z,14.30
2019-05-19T05:13:07.497Z,14.40
2019-05-19T05:15:37.888Z,14.60
2019-05-19T05:20:38.139Z,14.70
2019-05-19T05:23:08.742Z,14.80
2019-05-19T05:25:39.267Z,14.80
2019-05-19T05:28:09.662Z,14.90
2019-05-19T05:30:40.171Z,15.00
2019-05-19T05:33:10.499Z,15.00
2019-05-19T05:35:40.819Z,15.20
2019-05-19T05:38:11.471Z,15.20
2019-05-19T05:40:41.935Z,15.40
2019-05-19T05:43:12.519Z,15.50
2019-05-19T05:45:43.328Z,15.60
2019-05-19T05:48:13.759Z,15.60
2019-05-19T05:50:44.185Z,15.60
2019-05-19T05:53:14.732Z,15.60
2019-05-19T05:55:45.107Z,15.70
2019-05-19T05:58:15.486Z,15.70
2019-05-19T06:00:45.905Z,15.80
2019-05-19T06:03:16.211Z,16.00
2019-05-19T06:05:46.640Z,16.00
2019-05-19T06:08:17.001Z,16.10
2019-05-19T06:10:47.373Z,16.20
2019-05-19T06:13:18.037Z,16.30
2019-05-19T06:15:48.419Z,16.40
2019-05-19T06:18:18.641Z,16.60
2019-05-19T06:20:48.992Z,16.70
2019-05-19T06:23:19.283Z,16.90
2019-05-19T06:25:49.817Z,17.00
2019-05-19T06:28:20.336Z,17.10
2019-05-19T06:30:50.829Z,17.20
2019-05-19T06:33:21.372Z,17.20
2019-05-19T06:35:51.757Z,17.30
2019-05-19T06:38:22.275Z,17.30
2019-05-19T06:40:52.588Z,17.40
2019-05-19T06:43:22.928Z,17.50
2019-05-19T06:45:53.241Z,17.50
2019-05-19T06:48:23.649Z,17.60
2019-05-19T06:50:54.256Z,17.60
2019-05-19T06:53:24.644Z,17.60
2019-05-19T06:55:55.244Z,17.70
2019-05-19T06:58:25.622Z,17.70
2019-05-19T07:00:59.015Z,17.70
2019-05-19T07:03:26.507Z,17.80
2019-05-19T07:05:56.819Z,17.90
2019-05-19T07:08:27.116Z,17.90
2019-05-19T07:10:57.528Z,17.90
2019-05-19T07:13:27.844Z,17.90
2019-05-19T07:15:58.247Z,18.00
2019-05-19T07:18:28.521Z,18.00
2019-05-19T07:20:58.754Z,18.10
2019-05-19T07:23:29.226Z,18.20
2019-05-19T07:25:59.616Z,18.40
2019-05-19T07:28:30.129Z,18.60
2019-05-19T07:31:00.504Z,18.80
2019-05-19T07:33:30.819Z,19.00
2019-05-19T07:36:01.244Z,19.20
2019-05-19T07:38:31.566Z,19.40
2019-05-19T07:43:31.859Z,19.70
2019-05-19T07:46:02.302Z,19.80
2019-05-19T07:48:32.913Z,19.90
2019-05-19T07:51:03.440Z,20.00
2019-05-19T07:53:42.569Z,20.10
2019-05-19T07:56:04.875Z,20.20
2019-05-19T07:58:37.773Z,20.20
2019-05-19T08:01:08.352Z,20.30
2019-05-19T08:03:38.832Z,20.40
2019-05-19T08:06:09.526Z,20.40
2019-05-19T08:08:39.906Z,20.40
2019-05-19T08:11:10.539Z,20.50
2019-05-19T08:13:41.069Z,20.60
2019-05-19T08:16:12.450Z,20.70
2019-05-19T08:18:42.833Z,20.90
2019-05-19T08:21:13.426Z,21.00
2019-05-19T08:23:59.263Z,21.20
2019-05-19T08:26:14.429Z,21.30
2019-05-19T08:28:44.706Z,21.40
2019-05-19T08:31:15.109Z,21.30
2019-05-19T08:33:45.486Z,21.40
2019-05-19T08:38:45.624Z,21.60
2019-05-19T08:41:15.824Z,21.60
2019-05-19T08:43:46.213Z,21.60
2019-05-19T08:46:16.715Z,21.80
2019-05-19T08:48:47.119Z,22.00
2019-05-19T08:51:18.261Z,22.20
2019-05-19T08:53:48.735Z,22.00
2019-05-19T08:56:19.216Z,21.60
2019-05-19T08:58:50.900Z,21.50
2019-05-19T09:01:21.420Z,21.50
2019-05-19T09:03:51.869Z,21.70
2019-05-19T09:06:22.284Z,21.80
2019-05-19T09:08:52.721Z,22.10
2019-05-19T09:11:23.059Z,22.00
2019-05-19T09:13:53.848Z,21.90
2019-05-19T09:16:24.479Z,22.10
2019-05-19T09:18:54.765Z,22.30
2019-05-19T09:21:25.305Z,22.40
2019-05-19T09:23:55.627Z,22.70
2019-05-19T09:26:25.988Z,22.90
2019-05-19T09:28:56.452Z,23.10
2019-05-19T09:31:26.755Z,23.10
2019-05-19T09:33:57.200Z,23.40
2019-05-19T09:36:28.106Z,23.30
2019-05-19T09:38:58.662Z,23.10
2019-05-19T09:41:29.153Z,23.20
2019-05-19T09:43:59.415Z,23.40
2019-05-19T09:46:30.023Z,23.60
2019-05-19T09:49:06.117Z,23.60
2019-05-19T09:51:36.509Z,23.70
2019-05-19T09:54:06.974Z,23.60
2019-05-19T09:56:37.251Z,23.60
2019-05-19T09:59:07.530Z,23.60
2019-05-19T10:01:38.084Z,23.50
2019-05-19T10:04:08.437Z,23.40
2019-05-19T10:06:39.067Z,23.10
2019-05-19T10:09:21.917Z,22.80
2019-05-19T10:12:01.686Z,23.00
2019-05-19T10:14:32.081Z,23.10
2019-05-19T10:17:02.393Z,23.50
2019-05-19T10:19:32.945Z,24.00
2019-05-19T10:22:03.490Z,24.30
2019-05-19T10:27:03.413Z,24.30
2019-05-19T10:29:33.770Z,24.20
2019-05-19T10:34:33.817Z,24.40
2019-05-19T10:37:04.269Z,24.50
2019-05-19T10:39:35.467Z,24.60
2019-05-19T10:42:06.160Z,25.00
2019-05-19T10:44:36.693Z,25.20
2019-05-19T10:47:07.497Z,25.20
2019-05-19T10:49:38.842Z,25.10
2019-05-19T10:52:09.196Z,25.10
2019-05-19T10:54:39.593Z,25.00
2019-05-19T10:57:10.062Z,25.10
2019-05-19T10:59:40.559Z,25.20
2019-05-19T11:02:10.937Z,25.80
2019-05-19T11:04:41.417Z,26.30
2019-05-19T11:07:11.936Z,26.60
2019-05-19T11:09:42.408Z,26.90
2019-05-19T11:12:12.717Z,26.60
2019-05-19T11:14:43.304Z,26.90
2019-05-19T11:17:13.713Z,27.30
2019-05-19T11:19:43.980Z,27.20
2019-05-19T11:22:14.402Z,27.20
2019-05-19T11:24:44.805Z,26.70
2019-05-19T11:27:15.204Z,26.50
2019-05-19T11:29:45.813Z,26.70
2019-05-19T11:32:16.163Z,26.40
2019-05-19T11:34:47.176Z,25.60
2019-05-19T11:37:17.565Z,25.10
2019-05-19T11:39:48.010Z,24.90
2019-05-19T11:42:18.486Z,25.20
2019-05-19T11:44:49.039Z,26.30
2019-05-19T11:47:19.475Z,26.80
2019-05-19T11:49:50.065Z,27.40
2019-05-19T11:52:20.479Z,27.50
2019-05-19T11:54:51.060Z,28.20
2019-05-19T11:57:21.490Z,28.80
2019-05-19T11:59:51.861Z,29.70
2019-05-19T12:02:22.204Z,29.80
2019-05-19T12:04:52.647Z,30.00
2019-05-19T12:07:23.160Z,30.10
2019-05-19T12:09:53.678Z,28.80
2019-05-19T12:12:24.024Z,29.20
2019-05-19T12:14:54.689Z,28.90
2019-05-19T12:17:24.965Z,27.90
2019-05-19T12:19:55.576Z,26.90
2019-05-19T12:22:26.006Z,26.70
2019-05-19T12:24:56.527Z,26.70
2019-05-19T12:27:27.741Z,26.60
2019-05-19T12:29:58.377Z,27.70
2019-05-19T12:32:28.771Z,28.70
2019-05-19T12:35:00.377Z,29.50
2019-05-19T12:37:31.828Z,30.80
2019-05-19T12:40:02.354Z,31.30
2019-05-19T12:42:32.777Z,32.00
2019-05-19T12:45:03.322Z,32.60
2019-05-19T12:47:33.808Z,32.30
2019-05-19T12:50:04.591Z,30.30
2019-05-19T12:52:35.072Z,29.00
2019-05-19T12:55:05.852Z,28.90
2019-05-19T12:57:36.309Z,29.50
2019-05-19T13:02:38.217Z,29.30
2019-05-19T13:05:07.188Z,28.90
2019-05-19T13:07:37.461Z,29.50
2019-05-19T13:10:08.194Z,30.90
2019-05-19T13:12:38.514Z,32.00
2019-05-19T13:15:09.038Z,32.70
2019-05-19T13:17:39.457Z,32.60
2019-05-19T13:20:10.233Z,33.40
2019-05-19T13:22:40.648Z,32.90
2019-05-19T13:25:11.336Z,32.10
2019-05-19T13:27:42.840Z,32.20
2019-05-19T13:30:13.645Z,32.90
2019-05-19T13:32:44.064Z,33.00
2019-05-19T13:35:14.705Z,32.20
2019-05-19T13:37:45.109Z,31.70
2019-05-19T13:40:15.680Z,33.10
2019-05-19T13:42:46.258Z,33.30
2019-05-19T13:45:16.990Z,33.00
2019-05-19T13:47:47.409Z,32.40
2019-05-19T13:50:17.898Z,31.10
2019-05-19T13:52:51.124Z,29.10
2019-05-19T13:55:19.025Z,28.30
2019-05-19T13:57:49.503Z,27.60
2019-05-19T14:00:20.171Z,26.50
2019-05-19T14:02:50.655Z,25.60
2019-05-19T14:05:21.237Z,25.00
2019-05-19T14:07:51.723Z,24.60
2019-05-19T14:10:22.268Z,24.50
2019-05-19T14:12:52.821Z,24.40
2019-05-19T14:15:23.224Z,24.10
2019-05-19T14:17:53.653Z,23.40
2019-05-19T14:20:24.120Z,22.70
2019-05-19T14:22:54.399Z,22.30
2019-05-19T14:25:24.819Z,22.50
2019-05-19T14:27:55.250Z,22.70
2019-05-19T14:32:57.687Z,24.60
2019-05-19T14:37:58.825Z,26.90
2019-05-19T14:40:29.236Z,27.30
2019-05-19T14:43:01.538Z,27.70
2019-05-19T14:45:32.303Z,29.10
2019-05-19T14:48:02.891Z,30.80
2019-05-19T14:50:33.398Z,32.40
2019-05-19T14:53:03.803Z,31.90
2019-05-19T14:55:34.269Z,32.20
2019-05-19T14:58:04.852Z,32.80
2019-05-19T15:00:36.141Z,32.40
2019-05-19T15:03:08.499Z,32.40
2019-05-19T15:05:38.901Z,32.20
2019-05-19T15:08:09.347Z,32.60
2019-05-19T15:10:39.618Z,32.30
2019-05-19T15:13:09.946Z,33.50
2019-05-19T15:15:40.620Z,32.50
2019-05-19T15:18:10.932Z,33.00
2019-05-19T15:20:41.343Z,32.60
2019-05-19T15:23:11.638Z,33.10
2019-05-19T15:25:41.956Z,33.60
2019-05-19T15:28:13.086Z,33.10
2019-05-19T15:30:43.455Z,32.30
2019-05-19T15:33:14.062Z,31.40
2019-05-19T15:35:44.378Z,31.40
2019-05-19T15:38:14.706Z,32.10
2019-05-19T15:40:45.122Z,32.80
2019-05-19T15:43:15.455Z,32.30
2019-05-19T15:45:45.842Z,31.30
2019-05-19T15:48:16.146Z,30.80
2019-05-19T15:50:46.514Z,30.10
2019-05-19T15:53:16.784Z,29.60
2019-05-19T15:55:47.108Z,30.30
2019-05-19T15:58:17.467Z,31.40
2019-05-19T16:00:47.928Z,31.40
2019-05-19T16:03:18.547Z,29.80
2019-05-19T16:05:49.792Z,28.80
2019-05-19T16:08:20.059Z,27.60
2019-05-19T16:10:50.449Z,27.50
2019-05-19T16:13:22.046Z,28.00
2019-05-19T16:15:51.196Z,27.30
2019-05-19T16:18:21.506Z,26.60
2019-05-19T16:20:51.759Z,26.00
2019-05-19T16:23:22.116Z,25.50
2019-05-19T16:25:52.515Z,24.40
2019-05-19T16:28:30.192Z,24.00
2019-05-19T16:30:53.442Z,23.70
2019-05-19T16:33:23.787Z,23.70
2019-05-19T16:35:54.346Z,23.30
2019-05-19T16:38:24.643Z,23.50
2019-05-19T16:40:55.005Z,24.50
2019-05-19T16:43:25.367Z,25.00
2019-05-19T16:45:55.637Z,24.50
2019-05-19T16:48:25.987Z,24.00
2019-05-19T16:50:56.390Z,23.50
2019-05-19T16:53:26.722Z,23.20
2019-05-19T16:55:57.188Z,22.90
2019-05-19T16:58:28.116Z,22.50
2019-05-19T17:00:58.926Z,22.30
2019-05-19T17:03:29.396Z,22.20
2019-05-19T17:05:59.829Z,22.20
2019-05-19T17:08:30.103Z,22.50
2019-05-19T17:11:00.434Z,22.70
2019-05-19T17:13:32.870Z,22.40
2019-05-19T17:16:06.670Z,21.80
2019-05-19T17:18:37.019Z,21.40
2019-05-19T17:21:07.612Z,20.90
2019-05-19T17:23:37.949Z,20.80
2019-05-19T17:26:08.460Z,20.50
2019-05-19T17:28:38.989Z,20.40
2019-05-19T17:31:09.387Z,20.20
2019-05-19T17:36:09.453Z,20.00
2019-05-19T17:38:39.918Z,19.90
2019-05-19T17:41:10.331Z,19.90
2019-05-19T17:43:40.688Z,20.00
2019-05-19T17:46:11.153Z,20.00
2019-05-19T17:48:41.362Z,19.90
2019-05-19T17:51:11.905Z,19.80
2019-05-19T17:53:42.739Z,19.60
2019-05-19T17:56:13.133Z,19.40
2019-05-19T17:58:43.592Z,19.30
2019-05-19T18:01:13.912Z,19.10
2019-05-19T18:03:44.547Z,18.90
2019-05-19T18:06:14.952Z,18.80
2019-05-19T18:11:19.392Z,18.60
2019-05-19T18:16:19.494Z,18.30
2019-05-19T18:18:49.855Z,18.30
2019-05-19T18:21:21.095Z,18.10
2019-05-19T18:23:51.395Z,18.10
2019-05-19T18:26:21.737Z,18.00
2019-05-19T18:28:52.419Z,18.10
2019-05-19T18:31:22.817Z,18.20
2019-05-19T18:33:53.130Z,18.20
2019-05-19T18:36:23.439Z,18.30
2019-05-19T18:38:53.747Z,18.30
2019-05-19T18:41:39.011Z,18.20
2019-05-19T18:44:09.295Z,18.30
2019-05-19T18:46:39.649Z,18.30
2019-05-19T18:49:10.046Z,18.30
2019-05-19T18:51:40.290Z,18.30
2019-05-19T18:57:02.040Z,18.00
2019-05-19T18:59:46.409Z,17.90
2019-05-19T19:02:03.098Z,17.70
2019-05-19T19:04:33.655Z,17.50
2019-05-19T19:07:04.250Z,17.40
2019-05-19T19:09:34.883Z,17.30
2019-05-19T19:12:05.483Z,17.10
2019-05-19T19:14:35.822Z,17.00
2019-05-19T19:17:06.393Z,16.90
2019-05-19T19:19:37.753Z,16.90
2019-05-19T19:24:38.723Z,16.80
2019-05-19T19:27:08.857Z,16.80
2019-05-19T19:29:39.332Z,16.80
2019-05-19T19:32:09.736Z,16.80
2019-05-19T19:34:40.237Z,16.80
2019-05-19T19:37:10.854Z,16.80
2019-05-19T19:39:41.530Z,16.70
2019-05-19T19:42:12.163Z,16.70
2019-05-19T19:44:42.675Z,16.50
2019-05-19T19:47:13.310Z,16.40
2019-05-19T19:49:43.648Z,16.30
2019-05-19T19:52:13.997Z,16.20
2019-05-19T19:54:44.445Z,16.10
2019-05-19T19:59:45.746Z,16.10
2019-05-19T20:02:16.398Z,16.00
2019-05-19T20:04:46.863Z,15.90
2019-05-19T20:09:47.191Z,15.60
2019-05-19T20:12:17.385Z,15.40
2019-05-19T20:14:47.694Z,15.40
2019-05-19T20:17:18.251Z,15.30
2019-05-19T20:19:48.647Z,15.20
2019-05-19T20:22:19.370Z,15.10
2019-05-19T20:24:49.797Z,15.00
2019-05-19T20:27:20.245Z,14.90
2019-05-19T20:29:50.865Z,14.80
2019-05-19T20:32:21.598Z,14.60
2019-05-19T20:34:51.994Z,14.50
2019-05-19T20:37:22.501Z,14.40
2019-05-19T20:39:52.764Z,14.30
2019-05-19T20:42:23.555Z,14.30
2019-05-19T20:44:54.114Z,14.30
2019-05-19T20:47:24.607Z,14.50
2019-05-19T20:49:55.127Z,14.70
2019-05-19T20:52:25.775Z,14.80
2019-05-19T20:54:56.130Z,14.90
2019-05-19T20:57:26.591Z,15.00
2019-05-19T20:59:57.073Z,15.10
2019-05-19T21:02:27.278Z,15.00
2019-05-19T21:04:57.465Z,15.00
2019-05-19T21:07:27.767Z,14.90
2019-05-19T21:09:59.931Z,14.80
2019-05-19T21:12:31.024Z,14.70
2019-05-19T21:15:02.590Z,14.50
2019-05-19T21:17:33.917Z,14.50
2019-05-19T21:20:04.493Z,14.50
2019-05-19T21:22:34.761Z,14.60
2019-05-19T21:25:05.283Z,14.60
2019-05-19T21:27:35.462Z,14.50
2019-05-19T21:32:35.587Z,14.40
2019-05-19T21:35:06.367Z,14.30
2019-05-19T21:37:36.936Z,14.20
2019-05-19T21:40:07.846Z,14.10
2019-05-19T21:42:38.369Z,14.00
2019-05-19T21:45:08.950Z,13.90
2019-05-19T21:47:46.082Z,13.90
2019-05-19T21:50:25.335Z,13.80
2019-05-19T21:52:55.537Z,13.70
2019-05-19T21:55:25.723Z,13.50
2019-05-19T22:00:48.415Z,13.60
2019-05-19T22:03:18.786Z,13.70
2019-05-19T22:05:53.312Z,13.70
2019-05-19T22:08:19.539Z,13.70
2019-05-19T22:10:49.670Z,13.80
2019-05-19T22:13:19.929Z,13.80
2019-05-19T22:15:50.103Z,13.70
2019-05-19T22:18:20.252Z,13.50
2019-05-19T22:20:50.388Z,13.40
2019-05-19T22:23:20.914Z,13.40
2019-05-19T22:25:51.246Z,13.30
2019-05-19T22:28:21.874Z,13.20
2019-05-19T22:30:52.042Z,13.10
2019-05-19T22:33:22.297Z,13.10
2019-05-19T22:35:52.466Z,13.20
2019-05-19T22:38:22.761Z,13.30
2019-05-19T22:40:52.800Z,13.20
2019-05-19T22:43:23.253Z,13.30
2019-05-19T22:45:53.402Z,13.20
2019-05-19T22:48:23.602Z,13.10
2019-05-19T22:50:53.766Z,13.10
2019-05-19T22:53:23.986Z,13.20
2019-05-19T22:55:54.065Z,13.20
2019-05-19T22:58:24.223Z,13.20
2019-05-19T23:00:54.382Z,13.20
2019-05-19T23:03:25.018Z,13.20
2019-05-19T23:05:55.140Z,13.20
2019-05-19T23:08:25.322Z,13.30
2019-05-19T23:10:55.493Z,13.30
2019-05-19T23:13:25.721Z,13.30
2019-05-19T23:15:55.890Z,13.30
2019-05-19T23:18:26.490Z,13.20
2019-05-19T23:20:56.665Z,13.10
2019-05-19T23:23:27.156Z,13.10
2019-05-19T23:25:57.638Z,13.10
2019-05-19T23:28:27.782Z,13.00
2019-05-19T23:30:57.939Z,13.00
2019-05-19T23:33:28.135Z,13.00
2019-05-19T23:35:58.499Z,13.00
2019-05-19T23:38:28.636Z,13.00
2019-05-19T23:40:58.793Z,13.00
2019-05-19T23:43:28.986Z,13.00
2019-05-19T23:45:59.159Z,12.90
2019-05-19T23:48:29.289Z,12.80
2019-05-19T23:50:59.720Z,12.80
2019-05-19T23:53:29.881Z,12.70
2019-05-19T23:56:00.025Z,12.70
2019-05-19T23:58:30.214Z,12.70
